Time;durP1;ratioP1;P1;durP2;ratioP2;P2;SDS_P1;SDS_P2;PMS_P1;PMS_P2;Temp;Humidity;BMP_temperature;BMP_pressure;BME280_temperature;BME280_humidity;BME280_pressure;Samples;Min_cycle;Max_cycle;Signal;HPM_P1;HPM_P2
2022/10/07 00:02:10;;;;;;;13.68;8.07;;;;;;;;;;5071054;28;20069;-76
2022/10/07 00:04:43;;;;;;;14.20;7.22;;;;;;;;;;5088626;28;20068;-75
2022/10/07 00:07:11;;;;;;;9.85;7.07;;;;;;;;;;5088479;28;20040;-75
2022/10/07 00:09:39;;;;;;;12.00;7.28;;;;;;;;;;5069826;28;20025;-76
2022/10/07 00:12:06;;;;;;;9.65;6.75;;;;;;;;;;5089545;28;20048;-75
2022/10/07 00:14:33;;;;;;;11.73;6.40;;;;;;;;;;5088748;28;20502;-76
2022/10/07 00:17:00;;;;;;;8.30;6.90;;;;;;;;;;5089305;28;20393;-75
2022/10/07 00:19:28;;;;;;;7.68;6.47;;;;;;;;;;5070149;28;20550;-75
2022/10/07 00:21:55;;;;;;;12.82;7.05;;;;;;;;;;5071725;28;20143;-75
2022/10/07 00:24:22;;;;;;;12.82;7.22;;;;;;;;;;5088582;28;20079;-76
2022/10/07 00:26:49;;;;;;;30.77;7.35;;;;;;;;;;5052026;28;20044;-75
2022/10/07 00:29:16;;;;;;;27.42;6.93;;;;;;;;;;5088863;28;20051;-75
2022/10/07 00:31:43;;;;;;;19.67;7.18;;;;;;;;;;5089488;28;20055;-75
2022/10/07 00:34:11;;;;;;;17.45;6.60;;;;;;;;;;5069616;28;20428;-75
2022/10/07 00:36:38;;;;;;;37.00;6.70;;;;;;;;;;5088498;28;20047;-75
2022/10/07 00:39:08;;;;;;;58.75;6.85;;;;;;;;;;5070667;28;20119;-75
2022/10/07 00:41:43;;;;;;;64.88;6.82;;;;;;;;;;5070613;28;20072;-76
2022/10/07 00:44:35;;;;;;;9.43;6.60;;;;;;;;;;5088604;28;20085;-76
2022/10/07 00:47:02;;;;;;;15.02;6.03;;;;;;;;;;5089071;28;20048;-76
2022/10/07 00:49:31;;;;;;;6.20;5.65;;;;;;;;;;5053989;28;20071;-76
2022/10/07 00:51:58;;;;;;;6.10;5.60;;;;;;;;;;5069229;28;20135;-75
2022/10/07 00:54:25;;;;;;;20.67;6.25;;;;;;;;;;5052802;28;20151;-76
2022/10/07 00:56:53;;;;;;;25.98;6.78;;;;;;;;;;5091322;28;20051;-75
2022/10/07 00:59:20;;;;;;;9.77;6.35;;;;;;;;;;5073774;28;20086;-76
2022/10/07 01:01:48;;;;;;;17.88;5.53;;;;;;;;;;5073533;28;20051;-77
2022/10/07 01:04:16;;;;;;;13.27;5.88;;;;;;;;;;5091419;28;20127;-75
2022/10/07 01:06:44;;;;;;;29.42;5.03;;;;;;;;;;5088888;28;20509;-76
2022/10/07 01:09:13;;;;;;;7.35;5.25;;;;;;;;;;5073092;28;20127;-76
2022/10/07 01:11:57;;;;;;;26.75;5.93;;;;;;;;;;5073684;28;20413;-76
2022/10/07 01:14:25;;;;;;;27.52;6.00;;;;;;;;;;5072890;28;20200;-75
2022/10/07 01:17:00;;;;;;;23.27;5.32;;;;;;;;;;5073378;28;20123;-76
2022/10/07 01:19:37;;;;;;;40.90;4.82;;;;;;;;;;5059049;28;20045;-75
2022/10/07 01:22:10;;;;;;;16.75;5.22;;;;;;;;;;5037071;28;20045;-76
2022/10/07 01:24:41;;;;;;;12.10;4.90;;;;;;;;;;5078599;28;20040;-75
2022/10/07 01:27:10;;;;;;;30.92;5.82;;;;;;;;;;5073192;28;20559;-76
2022/10/07 01:29:39;;;;;;;36.85;5.32;;;;;;;;;;5056848;28;20044;-76
2022/10/07 01:32:18;;;;;;;20.67;4.17;;;;;;;;;;5073343;28;20052;-76
2022/10/07 01:34:46;;;;;;;26.42;5.40;;;;;;;;;;5090865;28;20369;-76
2022/10/07 01:37:15;;;;;;;37.97;5.22;;;;;;;;;;5036201;28;20052;-75
2022/10/07 01:39:50;;;;;;;23.92;5.38;;;;;;;;;;5060512;28;20063;-76
2022/10/07 01:42:19;;;;;;;29.05;6.00;;;;;;;;;;5090358;28;20048;-76
2022/10/07 01:44:48;;;;;;;9.20;5.82;;;;;;;;;;5072363;28;20040;-76
2022/10/07 01:47:16;;;;;;;36.85;5.88;;;;;;;;;;5072708;28;20043;-76
2022/10/07 01:49:43;;;;;;;31.73;5.97;;;;;;;;;;5072641;28;20039;-75
2022/10/07 01:52:10;;;;;;;22.77;6.03;;;;;;;;;;5052764;28;20048;-75
2022/10/07 01:54:50;;;;;;;12.10;5.53;;;;;;;;;;5072825;28;20071;-75
2022/10/07 01:57:34;;;;;;;12.20;5.45;;;;;;;;;;5075394;28;20119;-76
2022/10/07 02:00:11;;;;;;;13.57;4.95;;;;;;;;;;5073048;28;20051;-76
2022/10/07 02:02:52;;;;;;;6.25;5.20;;;;;;;;;;5072749;28;20032;-76
2022/10/07 02:05:34;;;;;;;6.30;5.20;;;;;;;;;;5055375;28;20560;-76
2022/10/07 02:08:06;;;;;;;4.50;4.20;;;;;;;;;;5071183;28;20044;-76
2022/10/07 02:10:36;;;;;;;6.72;4.43;;;;;;;;;;5069591;28;20040;-75
2022/10/07 02:13:08;;;;;;;6.18;4.40;;;;;;;;;;5055084;28;20475;-76
2022/10/07 02:15:39;;;;;;;5.22;4.63;;;;;;;;;;5090070;28;20584;-75
2022/10/07 02:18:07;;;;;;;5.63;5.13;;;;;;;;;;5072203;28;20075;-75
2022/10/07 02:20:37;;;;;;;6.25;5.30;;;;;;;;;;5071337;28;20305;-76
2022/10/07 02:23:06;;;;;;;6.15;4.78;;;;;;;;;;5072532;28;20078;-76
2022/10/07 02:25:36;;;;;;;5.40;4.40;;;;;;;;;;5089638;28;20135;-75
2022/10/07 02:28:05;;;;;;;6.70;4.75;;;;;;;;;;5071196;28;20040;-76
2022/10/07 02:30:35;;;;;;;16.00;4.68;;;;;;;;;;5064044;28;20036;-75
2022/10/07 02:33:04;;;;;;;10.55;5.18;;;;;;;;;;5055779;28;20047;-75
2022/10/07 02:35:36;;;;;;;10.55;5.25;;;;;;;;;;5071542;28;20074;-75
2022/10/07 02:38:07;;;;;;;11.75;5.22;;;;;;;;;;5071934;28;20126;-76
2022/10/07 02:40:36;;;;;;;5.00;4.50;;;;;;;;;;5071930;28;20051;-75
2022/10/07 02:43:13;;;;;;;13.70;5.00;;;;;;;;;;5071614;28;20051;-75
2022/10/07 02:46:04;;;;;;;18.88;5.55;;;;;;;;;;5069596;28;20039;-75
2022/10/07 02:48:34;;;;;;;7.85;6.03;;;;;;;;;;5056500;28;20056;-75
2022/10/07 02:51:03;;;;;;;16.02;6.00;;;;;;;;;;5071680;28;20048;-76
2022/10/07 02:53:32;;;;;;;9.32;5.15;;;;;;;;;;5038369;28;20075;-76
2022/10/07 02:56:01;;;;;;;8.68;6.20;;;;;;;;;;5069644;28;20086;-76
2022/10/07 02:58:29;;;;;;;9.45;5.47;;;;;;;;;;5071349;28;20131;-75
2022/10/07 03:01:00;;;;;;;14.18;6.03;;;;;;;;;;5054521;28;20044;-76
2022/10/07 03:03:29;;;;;;;14.23;5.47;;;;;;;;;;5070322;28;20043;-75
2022/10/07 03:06:00;;;;;;;13.32;5.90;;;;;;;;;;5054478;28;20048;-76
2022/10/07 03:08:29;;;;;;;9.98;5.65;;;;;;;;;;5068008;28;20044;-74
2022/10/07 03:10:57;;;;;;;12.55;5.57;;;;;;;;;;5070704;28;20465;-76
2022/10/07 03:13:25;;;;;;;23.17;6.32;;;;;;;;;;5070772;28;20095;-76
2022/10/07 03:15:57;;;;;;;11.52;6.20;;;;;;;;;;5070612;28;20040;-77
2022/10/07 03:18:27;;;;;;;24.27;6.50;;;;;;;;;;5070352;28;20338;-76
2022/10/07 03:21:24;;;;;;;26.42;6.13;;;;;;;;;;5055463;28;20044;-77
2022/10/07 03:23:54;;;;;;;17.25;6.97;;;;;;;;;;5070757;28;20060;-77
2022/10/07 03:26:25;;;;;;;14.23;6.38;;;;;;;;;;5069804;28;20516;-76
2022/10/07 03:28:54;;;;;;;29.60;5.75;;;;;;;;;;5068446;28;20052;-76
2022/10/07 03:31:22;;;;;;;8.93;6.93;;;;;;;;;;5069984;28;20035;-76
2022/10/07 03:33:55;;;;;;;9.60;6.38;;;;;;;;;;5036392;28;20063;-76
2022/10/07 03:36:23;;;;;;;14.27;6.38;;;;;;;;;;5070087;28;20048;-77
2022/10/07 03:38:51;;;;;;;15.00;6.53;;;;;;;;;;5070691;28;20295;-76
2022/10/07 03:41:19;;;;;;;22.83;6.93;;;;;;;;;;5071028;28;20528;-76
2022/10/07 03:43:50;;;;;;;11.05;6.22;;;;;;;;;;5053944;28;20044;-77
2022/10/07 03:46:21;;;;;;;14.57;6.40;;;;;;;;;;5070415;28;20506;-76
2022/10/07 03:48:50;;;;;;;9.13;5.85;;;;;;;;;;5070004;28;20123;-76
2022/10/07 03:51:19;;;;;;;29.13;6.30;;;;;;;;;;5064317;28;20053;-76
2022/10/07 03:53:47;;;;;;;20.20;6.90;;;;;;;;;;5047336;28;20055;-77
2022/10/07 03:56:15;;;;;;;12.57;6.85;;;;;;;;;;5053686;28;20124;-76
2022/10/07 03:58:43;;;;;;;34.78;6.68;;;;;;;;;;5070321;28;20048;-76
2022/10/07 04:01:13;;;;;;;28.63;5.63;;;;;;;;;;5049244;28;20505;-76
2022/10/07 04:03:51;;;;;;;20.63;4.90;;;;;;;;;;5054869;28;20038;-76
2022/10/07 04:06:19;;;;;;;8.57;5.47;;;;;;;;;;5046988;28;20040;-77
2022/10/07 04:08:50;;;;;;;9.82;4.78;;;;;;;;;;5053555;28;20127;-77
2022/10/07 04:11:18;;;;;;;9.15;4.72;;;;;;;;;;5053790;28;20493;-77
2022/10/07 04:13:46;;;;;;;20.42;5.15;;;;;;;;;;5069571;28;20039;-77
2022/10/07 04:16:16;;;;;;;10.40;5.75;;;;;;;;;;5051939;28;20122;-76
2022/10/07 04:18:44;;;;;;;6.60;4.72;;;;;;;;;;5097868;28;20508;-76
2022/10/07 04:21:11;;;;;;;8.93;4.70;;;;;;;;;;5061453;28;20036;-76
2022/10/07 04:23:40;;;;;;;9.40;5.40;;;;;;;;;;5059277;28;20040;-77
2022/10/07 04:26:09;;;;;;;5.97;5.25;;;;;;;;;;5069105;28;20069;-77
2022/10/07 04:28:38;;;;;;;8.20;5.15;;;;;;;;;;5060073;28;20047;-76
2022/10/07 04:31:18;;;;;;;10.88;5.38;;;;;;;;;;5057210;28;20061;-78
2022/10/07 04:33:50;;;;;;;;;;;;;;;;;;5053237;28;20048;-76
2022/10/07 04:36:23;;;;;;;19.20;6.35;;;;;;;;;;5059057;28;19924;-75
2022/10/07 04:38:58;;;;;;;19.15;5.40;;;;;;;;;;5061781;28;20052;-75
2022/10/07 04:41:30;;;;;;;22.60;5.80;;;;;;;;;;5056897;28;20126;-75
2022/10/07 04:43:57;;;;;;;32.55;5.53;;;;;;;;;;5071659;28;20108;-75
2022/10/07 04:46:29;;;;;;;22.52;6.43;;;;;;;;;;5068589;28;20089;-75
2022/10/07 04:49:03;;;;;;;15.98;6.00;;;;;;;;;;5072728;28;20069;-75
2022/10/07 04:51:31;;;;;;;19.30;5.78;;;;;;;;;;5073497;28;20512;-75
2022/10/07 04:54:00;;;;;;;11.70;6.15;;;;;;;;;;5060218;28;20048;-75
2022/10/07 04:56:50;;;;;;;11.50;5.85;;;;;;;;;;5074894;28;20048;-74
2022/10/07 04:59:20;;;;;;;8.93;5.53;;;;;;;;;;5069103;28;20119;-75
2022/10/07 05:01:52;;;;;;;13.80;5.07;;;;;;;;;;5067456;28;20453;-76
2022/10/07 05:04:21;;;;;;;15.73;5.18;;;;;;;;;;5073010;28;20066;-75
2022/10/07 05:06:50;;;;;;;13.30;5.50;;;;;;;;;;5052992;28;20458;-74
2022/10/07 05:09:17;;;;;;;11.63;5.28;;;;;;;;;;5071673;28;20093;-75
2022/10/07 05:11:47;;;;;;;21.10;6.03;;;;;;;;;;5057187;28;20047;-76
2022/10/07 05:14:20;;;;;;;19.25;6.38;;;;;;;;;;5072688;28;20059;-75
2022/10/07 05:16:50;;;;;;;11.27;5.72;;;;;;;;;;5056555;28;20119;-78
2022/10/07 05:19:19;;;;;;;13.02;5.97;;;;;;;;;;5057969;28;20040;-74
2022/10/07 05:21:47;;;;;;;21.25;5.40;;;;;;;;;;5056874;28;20047;-75
2022/10/07 05:24:15;;;;;;;10.05;4.50;;;;;;;;;;5095912;22;21231;-75
2022/10/07 05:26:42;;;;;;;16.52;4.63;;;;;;;;;;5086856;28;20092;-75
2022/10/07 05:29:12;;;;;;;19.65;5.43;;;;;;;;;;5095684;28;20061;-76
2022/10/07 05:31:44;;;;;;;8.43;4.22;;;;;;;;;;5083512;28;20040;-77
2022/10/07 05:34:14;;;;;;;9.70;3.65;;;;;;;;;;5108200;28;20112;-76
2022/10/07 05:36:42;;;;;;;16.88;5.07;;;;;;;;;;5071503;28;20087;-76
2022/10/07 05:39:11;;;;;;;7.20;3.90;;;;;;;;;;5072079;28;20063;-77
2022/10/07 05:41:45;;;;;;;27.00;5.65;;;;;;;;;;5055791;28;20035;-76
2022/10/07 05:44:19;;;;;;;9.20;3.80;;;;;;;;;;5078379;28;20593;-76
2022/10/07 05:46:49;;;;;;;13.30;5.53;;;;;;;;;;5079515;28;20123;-77
2022/10/07 05:49:17;;;;;;;9.80;5.00;;;;;;;;;;5072267;28;20058;-76
2022/10/07 05:51:44;;;;;;;7.88;4.80;;;;;;;;;;5091724;28;20068;-76
2022/10/07 05:54:12;;;;;;;5.22;3.97;;;;;;;;;;5077453;28;20040;-77
2022/10/07 05:56:44;;;;;;;11.80;4.13;;;;;;;;;;5064277;28;20412;-77
2022/10/07 05:59:12;;;;;;;12.95;4.50;;;;;;;;;;5072261;28;20032;-77
2022/10/07 06:01:42;;;;;;;11.90;5.03;;;;;;;;;;5078895;28;20089;-77
2022/10/07 06:04:14;;;;;;;13.50;4.30;;;;;;;;;;5070701;28;20056;-77
2022/10/07 06:06:45;;;;;;;7.70;3.90;;;;;;;;;;5067295;28;20044;-76
2022/10/07 06:14:52;;;;;;;15.13;4.78;;;;;;;;;;5054576;28;20082;-76
2022/10/07 06:17:19;;;;;;;8.25;4.20;;;;;;;;;;5060544;28;20087;-77
2022/10/07 06:19:48;;;;;;;6.80;4.53;;;;;;;;;;5071867;28;20084;-77
2022/10/07 06:22:17;;;;;;;9.60;4.75;;;;;;;;;;5068732;28;20050;-77
2022/10/07 06:24:46;;;;;;;18.42;6.30;;;;;;;;;;5074868;28;20051;-76
2022/10/07 06:27:14;;;;;;;9.40;4.30;;;;;;;;;;5054928;28;20040;-77
2022/10/07 06:29:43;;;;;;;13.52;4.65;;;;;;;;;;5069161;28;20051;-77
2022/10/07 06:32:10;;;;;;;5.18;4.53;;;;;;;;;;5069823;28;20063;-77
2022/10/07 06:34:39;;;;;;;7.38;4.93;;;;;;;;;;5061580;28;20036;-77
2022/10/07 06:37:06;;;;;;;17.15;5.00;;;;;;;;;;5063882;28;20048;-76
2022/10/07 06:39:34;;;;;;;9.50;4.88;;;;;;;;;;5055351;28;20036;-77
2022/10/07 06:42:01;;;;;;;5.65;4.85;;;;;;;;;;5072107;28;20082;-77
2022/10/07 06:45:04;;;;;;;15.18;4.85;;;;;;;;;;5034387;28;20052;-77
2022/10/07 06:47:31;;;;;;;10.63;4.57;;;;;;;;;;5078948;28;20044;-77
2022/10/07 06:49:59;;;;;;;6.45;5.80;;;;;;;;;;5091928;28;20039;-77
2022/10/07 06:52:26;;;;;;;13.68;5.20;;;;;;;;;;5086107;28;20036;-77
2022/10/07 06:54:54;;;;;;;14.88;5.55;;;;;;;;;;5038156;28;20048;-77
2022/10/07 06:57:21;;;;;;;11.73;4.65;;;;;;;;;;5054765;28;20093;-77
2022/10/07 07:00:10;;;;;;;6.15;4.57;;;;;;;;;;5071443;28;20485;-76
2022/10/07 07:02:37;;;;;;;8.70;4.80;;;;;;;;;;5071090;28;20036;-76
2022/10/07 07:05:07;;;;;;;5.82;4.70;;;;;;;;;;5069838;28;20044;-77
2022/10/07 07:07:35;;;;;;;6.90;4.00;;;;;;;;;;5071004;28;20437;-77
2022/10/07 07:10:02;;;;;;;13.00;4.50;;;;;;;;;;5071894;28;20525;-77
2022/10/07 07:12:32;;;;;;;5.40;4.90;;;;;;;;;;5071707;28;20111;-77
2022/10/07 07:15:00;;;;;;;5.32;4.55;;;;;;;;;;5070727;28;20044;-76
2022/10/07 07:17:27;;;;;;;4.97;4.57;;;;;;;;;;5071223;28;20040;-77
2022/10/07 07:19:55;;;;;;;7.57;4.88;;;;;;;;;;5071660;28;20055;-77
2022/10/07 07:22:23;;;;;;;5.03;4.43;;;;;;;;;;5070815;28;20086;-82
2022/10/07 07:24:50;;;;;;;5.15;4.30;;;;;;;;;;5054077;28;20125;-77
2022/10/07 07:27:18;;;;;;;8.73;4.95;;;;;;;;;;5071167;28;20036;-77
2022/10/07 07:29:45;;;;;;;5.38;4.55;;;;;;;;;;5071095;28;20051;-76
2022/10/07 07:32:12;;;;;;;5.50;5.00;;;;;;;;;;5054765;28;20068;-77
2022/10/07 07:34:42;;;;;;;8.07;5.15;;;;;;;;;;5055615;28;20134;-77
2022/10/07 07:37:14;;;;;;;6.85;5.05;;;;;;;;;;5089821;28;20036;-77
2022/10/07 07:39:47;;;;;;;5.82;5.32;;;;;;;;;;5077784;28;20036;-77
2022/10/07 07:42:17;;;;;;;5.38;4.97;;;;;;;;;;5066738;28;20052;-78
2022/10/07 07:44:44;;;;;;;9.40;6.88;;;;;;;;;;5062112;28;20052;-76
2022/10/07 07:47:16;;;;;;;4.90;4.50;;;;;;;;;;5054330;28;20547;-76
2022/10/07 07:49:44;;;;;;;5.53;5.03;;;;;;;;;;5054272;28;20047;-76
2022/10/07 07:52:17;;;;;;;6.35;5.05;;;;;;;;;;5070726;28;20421;-77
2022/10/07 07:54:47;;;;;;;5.22;4.82;;;;;;;;;;5056017;28;20130;-77
2022/10/07 07:57:14;;;;;;;5.68;5.28;;;;;;;;;;5073145;28;20048;-77
2022/10/07 07:59:42;;;;;;;8.30;5.70;;;;;;;;;;5071725;28;20479;-77
2022/10/07 08:02:11;;;;;;;6.20;5.70;;;;;;;;;;5071362;28;20525;-77
2022/10/07 08:04:42;;;;;;;6.47;5.53;;;;;;;;;;5070883;28;20044;-77
2022/10/07 08:07:12;;;;;;;6.80;6.25;;;;;;;;;;5071282;28;20040;-77
2022/10/07 08:09:43;;;;;;;6.25;5.75;;;;;;;;;;5070528;28;20204;-78
2022/10/07 08:12:13;;;;;;;6.10;5.60;;;;;;;;;;5070609;28;20040;-76
2022/10/07 08:14:42;;;;;;;6.80;5.80;;;;;;;;;;5070194;28;20444;-76
2022/10/07 08:17:09;;;;;;;6.50;5.68;;;;;;;;;;5070709;28;20048;-77
2022/10/07 08:19:37;;;;;;;6.00;5.50;;;;;;;;;;5076181;28;20123;-76
2022/10/07 08:22:06;;;;;;;5.82;5.32;;;;;;;;;;5073616;28;20048;-77
2022/10/07 08:24:36;;;;;;;;;;;;;;;;;;5070669;28;20094;-76
2022/10/07 08:27:03;;;;;;;6.75;5.13;;;;;;;;;;5070401;28;20388;-78
2022/10/07 08:29:31;;;;;;;9.32;4.95;;;;;;;;;;5052172;28;20577;-77
2022/10/07 08:31:58;;;;;;;5.05;4.65;;;;;;;;;;5071442;28;20521;-76
2022/10/07 08:34:26;;;;;;;6.47;5.00;;;;;;;;;;5089190;28;20052;-76
2022/10/07 08:36:55;;;;;;;5.00;4.55;;;;;;;;;;5088498;28;20072;-78
2022/10/07 08:39:23;;;;;;;4.72;4.43;;;;;;;;;;5089019;28;20036;-77
2022/10/07 08:41:54;;;;;;;6.30;4.43;;;;;;;;;;5070788;28;20379;-77
2022/10/07 08:44:26;;;;;;;6.50;4.85;;;;;;;;;;5071049;28;20083;-77
2022/10/07 08:46:56;;;;;;;4.85;4.55;;;;;;;;;;5090446;28;20043;-76
2022/10/07 08:49:36;;;;;;;5.15;4.50;;;;;;;;;;5088790;28;20047;-76
2022/10/07 08:52:14;;;;;;;5.35;4.93;;;;;;;;;;5087668;28;20040;-77
2022/10/07 08:54:42;;;;;;;6.35;4.82;;;;;;;;;;5088377;28;20090;-76
2022/10/07 08:57:13;;;;;;;7.20;5.45;;;;;;;;;;5088106;28;20516;-76
2022/10/07 08:59:44;;;;;;;5.60;5.20;;;;;;;;;;5087923;28;20044;-76
2022/10/07 09:02:30;;;;;;;7.10;6.10;;;;;;;;;;5069946;28;20048;-76
2022/10/07 09:05:20;;;;;;;6.43;5.93;;;;;;;;;;5088449;28;20052;-76
2022/10/07 09:10:47;;;;;;;10.20;9.20;;;;;;;;;;5087365;28;19919;-77
2022/10/07 09:13:27;;;;;;;8.88;7.97;;;;;;;;;;5070103;28;20060;-76
2022/10/07 09:16:11;;;;;;;8.63;7.82;;;;;;;;;;5070479;28;20050;-76
2022/10/07 09:18:43;;;;;;;10.45;9.27;;;;;;;;;;5091682;28;20044;-75
2022/10/07 09:21:15;;;;;;;11.93;9.43;;;;;;;;;;5091234;28;20058;-87
2022/10/07 09:23:42;;;;;;;7.28;6.68;;;;;;;;;;5074512;28;20070;-77
2022/10/07 09:26:15;;;;;;;9.48;7.47;;;;;;;;;;5092211;28;20496;-77
2022/10/07 09:28:42;;;;;;;7.20;6.60;;;;;;;;;;5074129;28;20055;-76
2022/10/07 09:31:12;;;;;;;8.15;7.35;;;;;;;;;;5091837;28;20040;-77
2022/10/07 09:33:44;;;;;;;7.43;6.82;;;;;;;;;;5092032;28;20109;-78
2022/10/07 09:36:17;;;;;;;8.93;7.68;;;;;;;;;;5056712;28;20079;-77
2022/10/07 09:38:46;;;;;;;7.80;6.95;;;;;;;;;;5073711;28;20114;-77
2022/10/07 09:41:16;;;;;;;8.90;8.10;;;;;;;;;;5091603;28;20036;-77
2022/10/07 09:43:54;;;;;;;7.97;7.22;;;;;;;;;;5090513;28;20480;-77
2022/10/07 09:46:40;;;;;;;8.75;7.95;;;;;;;;;;5072716;28;20040;-77
2022/10/07 09:49:25;;;;;;;11.75;10.55;;;;;;;;;;5091451;28;20044;-76
2022/10/07 09:52:12;;;;;;;10.10;9.10;;;;;;;;;;5071182;28;20075;-77
2022/10/07 09:54:40;;;;;;;8.80;8.00;;;;;;;;;;5070551;28;20061;-77
2022/10/07 09:57:22;;;;;;;11.38;10.10;;;;;;;;;;5070717;28;20136;-78
2022/10/07 09:59:49;;;;;;;;;;;;;;;;;;5077068;28;20106;-77
2022/10/07 10:02:21;;;;;;;9.77;8.88;;;;;;;;;;5072734;28;19935;-77
2022/10/07 10:04:55;;;;;;;10.50;9.50;;;;;;;;;;5089937;28;20085;-77
2022/10/07 10:07:32;;;;;;;10.48;9.48;;;;;;;;;;5072781;28;20086;-78
2022/10/07 10:10:02;;;;;;;9.35;8.38;;;;;;;;;;5091085;28;20463;-78
2022/10/07 10:12:34;;;;;;;9.75;8.85;;;;;;;;;;5072742;28;20144;-77
2022/10/07 10:15:16;;;;;;;10.63;9.50;;;;;;;;;;5091020;28;20040;-77
2022/10/07 10:17:43;;;;;;;10.75;9.73;;;;;;;;;;5090970;28;20511;-81
2022/10/07 10:20:23;;;;;;;12.63;11.40;;;;;;;;;;5090299;28;20131;-76
2022/10/07 10:22:51;;;;;;;10.40;9.40;;;;;;;;;;5090427;28;20476;-79
2022/10/07 10:28:32;;;;;;;10.57;9.63;;;;;;;;;;5090047;28;20071;-76
2022/10/07 10:31:06;;;;;;;11.13;9.60;;;;;;;;;;5091308;28;20036;-77
2022/10/07 10:33:48;;;;;;;10.95;9.85;;;;;;;;;;5091119;28;20485;-77
2022/10/07 10:36:22;;;;;;;11.80;10.00;;;;;;;;;;5090224;28;20044;-77
2022/10/07 10:38:51;;;;;;;10.32;8.57;;;;;;;;;;5090285;28;20080;-77
2022/10/07 10:41:35;;;;;;;13.50;10.18;;;;;;;;;;5090191;28;20066;-77
2022/10/07 10:44:02;;;;;;;15.02;13.07;;;;;;;;;;5089778;28;20044;-77
2022/10/07 10:46:35;;;;;;;10.95;9.95;;;;;;;;;;5066890;28;20123;-77
2022/10/07 10:49:06;;;;;;;9.43;8.50;;;;;;;;;;5087526;28;20128;-77
2022/10/07 10:51:39;;;;;;;9.32;8.43;;;;;;;;;;5090231;28;20064;-77
2022/10/07 10:54:14;;;;;;;12.57;10.50;;;;;;;;;;5071889;28;20036;-76
2022/10/07 10:56:49;;;;;;;10.77;9.68;;;;;;;;;;5089900;28;20146;-78
2022/10/07 10:59:22;;;;;;;10.68;9.57;;;;;;;;;;5072225;28;20047;-77
2022/10/07 11:01:55;;;;;;;9.95;8.95;;;;;;;;;;5071687;28;20075;-78
2022/10/07 11:04:32;;;;;;;12.05;10.65;;;;;;;;;;5089534;28;20464;-76
2022/10/07 11:07:02;;;;;;;11.60;10.38;;;;;;;;;;5088455;28;20040;-77
2022/10/07 11:09:38;;;;;;;12.43;11.23;;;;;;;;;;5090011;28;20040;-76
2022/10/07 11:12:11;;;;;;;11.25;10.07;;;;;;;;;;5088629;28;20067;-77
2022/10/07 11:14:41;;;;;;;11.32;9.75;;;;;;;;;;5089284;28;20044;-77
2022/10/07 11:17:10;;;;;;;12.52;11.25;;;;;;;;;;5071231;28;20043;-77
2022/10/07 11:19:40;;;;;;;17.33;12.07;;;;;;;;;;5071490;28;20054;-77
2022/10/07 11:22:23;;;;;;;12.80;11.50;;;;;;;;;;5089162;28;20513;-75
2022/10/07 11:24:55;;;;;;;12.55;11.25;;;;;;;;;;5114011;22;21194;-74
2022/10/07 11:27:23;;;;;;;13.38;11.32;;;;;;;;;;5079127;28;20064;-75
2022/10/07 11:29:51;;;;;;;11.30;10.18;;;;;;;;;;5077778;28;20577;-76
2022/10/07 11:32:22;;;;;;;16.55;12.45;;;;;;;;;;5088658;28;20047;-75
2022/10/07 11:34:56;;;;;;;12.60;11.05;;;;;;;;;;5087941;28;20066;-75
2022/10/07 11:37:35;;;;;;;17.90;16.20;;;;;;;;;;5089004;28;20131;-75
2022/10/07 11:40:04;;;;;;;11.93;10.73;;;;;;;;;;5089345;28;20050;-75
2022/10/07 11:42:33;;;;;;;11.88;10.63;;;;;;;;;;5071371;28;20048;-75
2022/10/07 11:45:02;;;;;;;17.25;9.82;;;;;;;;;;5054575;28;20453;-75
2022/10/07 11:47:42;;;;;;;12.10;9.75;;;;;;;;;;5088660;28;20047;-75
2022/10/07 11:50:22;;;;;;;13.77;10.88;;;;;;;;;;5086925;28;20043;-75
2022/10/07 11:52:50;;;;;;;11.65;10.45;;;;;;;;;;5069331;28;20090;-76
2022/10/07 11:55:41;;;;;;;13.68;11.15;;;;;;;;;;5089154;28;20059;-75
2022/10/07 11:58:18;;;;;;;12.85;11.50;;;;;;;;;;5078079;28;20048;-75
2022/10/07 12:00:46;;;;;;;12.35;9.52;;;;;;;;;;5070147;28;20036;-74
2022/10/07 12:03:16;;;;;;;13.50;11.25;;;;;;;;;;5055414;28;20063;-77
2022/10/07 12:05:51;;;;;;;15.10;10.40;;;;;;;;;;5087355;28;20036;-75
2022/10/07 12:08:28;;;;;;;11.10;9.30;;;;;;;;;;5053385;28;20112;-76
2022/10/07 12:11:15;;;;;;;15.15;11.30;;;;;;;;;;5088478;28;20036;-78
2022/10/07 12:13:49;;;;;;;17.55;10.32;;;;;;;;;;5088980;28;20504;-80
2022/10/07 12:16:22;;;;;;;11.35;9.98;;;;;;;;;;5088263;28;20048;-75
2022/10/07 12:19:05;;;;;;;10.95;9.40;;;;;;;;;;5070165;28;20142;-76
2022/10/07 12:21:32;;;;;;;;;;;;;;;;;;5070523;28;20047;-76
2022/10/07 12:24:09;;;;;;;13.10;10.65;;;;;;;;;;5070494;28;19920;-76
2022/10/07 12:26:41;;;;;;;11.48;10.23;;;;;;;;;;5069932;28;20097;-76
2022/10/07 12:29:27;;;;;;;12.13;10.90;;;;;;;;;;5070241;28;20119;-76
2022/10/07 12:31:55;;;;;;;15.98;11.63;;;;;;;;;;5088057;28;20040;-83
2022/10/07 12:34:27;;;;;;;12.30;11.00;;;;;;;;;;5070580;28;20119;-75
2022/10/07 12:37:14;;;;;;;14.75;13.23;;;;;;;;;;5082383;28;20052;-75
2022/10/07 12:39:42;;;;;;;15.10;11.93;;;;;;;;;;5073128;28;20101;-75
2022/10/07 12:42:11;;;;;;;11.57;10.35;;;;;;;;;;5082563;28;20135;-76
2022/10/07 12:44:41;;;;;;;12.13;10.48;;;;;;;;;;5074795;28;20051;-76
2022/10/07 12:47:20;;;;;;;13.25;10.75;;;;;;;;;;5068077;28;20421;-78
2022/10/07 12:49:49;;;;;;;11.93;10.07;;;;;;;;;;5082708;28;20390;-75
2022/10/07 12:52:39;;;;;;;12.05;10.85;;;;;;;;;;5083470;28;20130;-75
2022/10/07 12:55:14;;;;;;;11.65;10.43;;;;;;;;;;5076579;28;20054;-75
2022/10/07 12:57:43;;;;;;;13.18;10.70;;;;;;;;;;5089386;28;20044;-76
2022/10/07 13:00:13;;;;;;;12.52;11.18;;;;;;;;;;5072557;28;20058;-75
2022/10/07 13:02:59;;;;;;;11.20;10.20;;;;;;;;;;5080455;28;20401;-76
2022/10/07 13:05:45;;;;;;;11.73;10.13;;;;;;;;;;5083559;28;20044;-75
2022/10/07 13:08:12;;;;;;;11.95;10.50;;;;;;;;;;5069209;28;20053;-75
2022/10/07 13:10:59;;;;;;;13.02;11.57;;;;;;;;;;5080705;28;20474;-76
2022/10/07 13:13:40;;;;;;;17.80;10.80;;;;;;;;;;5085416;28;20042;-75
2022/10/07 13:16:30;;;;;;;14.70;10.35;;;;;;;;;;5083514;28;20116;-76
2022/10/07 13:19:18;;;;;;;13.02;11.48;;;;;;;;;;5087306;28;20036;-75
2022/10/07 13:21:48;;;;;;;13.40;11.63;;;;;;;;;;5064973;28;20517;-75
2022/10/07 13:24:19;;;;;;;10.88;9.50;;;;;;;;;;5076779;28;20037;-76
2022/10/07 13:26:46;;;;;;;14.30;10.75;;;;;;;;;;5077509;28;20123;-75
2022/10/07 13:29:22;;;;;;;14.45;11.13;;;;;;;;;;5072127;28;20044;-74
2022/10/07 13:32:06;;;;;;;12.52;10.70;;;;;;;;;;5061928;28;20123;-75
2022/10/07 13:34:33;;;;;;;12.65;10.20;;;;;;;;;;5080104;28;20051;-76
2022/10/07 13:37:01;;;;;;;16.25;10.55;;;;;;;;;;5088402;28;20170;-76
2022/10/07 13:39:29;;;;;;;14.00;10.23;;;;;;;;;;5090050;28;20565;-76
2022/10/07 13:41:58;;;;;;;12.10;10.90;;;;;;;;;;5079571;28;20045;-76
2022/10/07 13:44:26;;;;;;;13.25;11.05;;;;;;;;;;5086546;28;20443;-82
2022/10/07 13:47:05;;;;;;;11.60;10.50;;;;;;;;;;5081584;28;20040;-76
2022/10/07 13:49:34;;;;;;;12.20;11.00;;;;;;;;;;5053313;28;20075;-76
2022/10/07 13:52:04;;;;;;;11.02;9.90;;;;;;;;;;5072702;28;20097;-75
2022/10/07 13:54:32;;;;;;;10.85;9.75;;;;;;;;;;5083044;28;20033;-75
2022/10/07 13:57:03;;;;;;;11.27;10.07;;;;;;;;;;5065824;28;20447;-76
2022/10/07 13:59:36;;;;;;;17.40;10.93;;;;;;;;;;5082790;28;20048;-76
2022/10/07 14:02:04;;;;;;;15.93;11.57;;;;;;;;;;5087030;28;20074;-76
2022/10/07 14:04:34;;;;;;;12.38;10.80;;;;;;;;;;5072059;28;20040;-76
2022/10/07 14:07:15;;;;;;;16.73;10.73;;;;;;;;;;5069659;28;20036;-76
2022/10/07 14:09:46;;;;;;;12.07;10.88;;;;;;;;;;5080593;28;20295;-77
2022/10/07 14:12:16;;;;;;;12.13;10.40;;;;;;;;;;5091204;28;20063;-76
2022/10/07 14:14:45;;;;;;;10.38;9.38;;;;;;;;;;5090603;28;20543;-76
2022/10/07 14:17:22;;;;;;;11.85;9.48;;;;;;;;;;5089716;28;20076;-75
2022/10/07 14:19:50;;;;;;;11.80;10.57;;;;;;;;;;5087202;28;20039;-76
2022/10/07 14:22:30;;;;;;;17.38;10.70;;;;;;;;;;5059515;28;20054;-76
2022/10/07 14:25:00;;;;;;;11.95;10.05;;;;;;;;;;5089879;28;20044;-76
2022/10/07 14:27:36;;;;;;;12.93;10.38;;;;;;;;;;5090053;28;20055;-76
2022/10/07 14:30:23;;;;;;;11.40;10.20;;;;;;;;;;5091208;28;20047;-77
2022/10/07 14:36:09;;;;;;;12.30;9.68;;;;;;;;;;5095224;28;20071;-77
2022/10/07 14:38:37;;;;;;;9.90;9.00;;;;;;;;;;5093066;28;20159;-76
2022/10/07 14:41:04;;;;;;;12.07;10.98;;;;;;;;;;5091636;28;20052;-76
2022/10/07 14:43:32;;;;;;;12.55;11.35;;;;;;;;;;5092137;28;20044;-77
2022/10/07 14:46:10;;;;;;;12.23;10.52;;;;;;;;;;5072404;28;20067;-76
2022/10/07 14:48:38;;;;;;;13.85;10.20;;;;;;;;;;5091412;28;20497;-77
2022/10/07 14:51:05;;;;;;;11.00;8.73;;;;;;;;;;5091280;28;20063;-76
2022/10/07 14:53:34;;;;;;;14.98;9.35;;;;;;;;;;5090673;28;20052;-76
2022/10/07 14:56:01;;;;;;;10.05;9.15;;;;;;;;;;5091068;28;20068;-75
2022/10/07 14:58:28;;;;;;;13.13;10.00;;;;;;;;;;5091406;28;20094;-76
2022/10/07 15:00:56;;;;;;;10.80;8.90;;;;;;;;;;5091862;28;20131;-77
2022/10/07 15:03:23;;;;;;;10.32;9.18;;;;;;;;;;5091176;28;20101;-76
2022/10/07 15:05:50;;;;;;;11.23;8.98;;;;;;;;;;5072136;28;20452;-76
2022/10/07 15:08:17;;;;;;;11.00;9.05;;;;;;;;;;5088057;28;20295;-76
2022/10/07 15:10:45;;;;;;;10.02;9.00;;;;;;;;;;5079714;28;20391;-76
2022/10/07 15:13:13;;;;;;;14.32;8.90;;;;;;;;;;5087216;28;20089;-78
2022/10/07 15:15:44;;;;;;;11.23;8.70;;;;;;;;;;5081811;28;20040;-75